Time;durP1;ratioP1;P1;durP2;ratioP2;P2;SDS_P1;SDS_P2;PMS_P1;PMS_P2;Temp;Humidity;BMP_temperature;BMP_pressure;BME280_temperature;BME280_humidity;BME280_pressure;Samples;Min_cycle;Max_cycle;Signal;HPM_P1;HPM_P2
2021/05/16 05:58:35;;;;;;;5.85;3.72;;;18.50;68.10;;;;;;5112442;28;20130;-41
2021/05/16 06:01:02;;;;;;;7.13;3.65;;;18.60;67.60;;;;;;5136846;27;20035;-40
2021/05/16 06:03:27;;;;;;;6.28;4.20;;;18.70;67.80;;;;;;5136517;27;20434;-38
2021/05/16 06:05:53;;;;;;;6.13;4.25;;;18.80;67.60;;;;;;5136937;27;20287;-39
2021/05/16 06:08:19;;;;;;;9.52;4.50;;;18.90;67.50;;;;;;5136332;27;20330;-38
2021/05/16 06:10:45;;;;;;;5.80;4.15;;;19.00;66.90;;;;;;5136316;27;20453;-38
2021/05/16 06:13:12;;;;;;;7.13;4.70;;;19.10;65.60;;;;;;5136244;28;20027;-38
2021/05/16 06:15:37;;;;;;;7.55;4.78;;;19.10;65.10;;;;;;5136837;28;20151;-38
2021/05/16 06:18:03;;;;;;;8.85;4.93;;;19.30;65.00;;;;;;5136512;28;20094;-40
2021/05/16 06:20:29;;;;;;;9.63;5.10;;;19.30;64.70;;;;;;5136446;28;20035;-38
2021/05/16 06:22:55;;;;;;;6.00;4.43;;;19.40;64.50;;;;;;5136392;28;20318;-38
2021/05/16 06:25:21;;;;;;;8.18;4.07;;;19.50;64.20;;;;;;5136371;28;20023;-40
2021/05/16 06:27:47;;;;;;;7.72;3.92;;;19.60;63.90;;;;;;5136398;28;20027;-38
2021/05/16 06:30:14;;;;;;;6.07;3.08;;;19.70;63.70;;;;;;5136318;28;20035;-38
2021/05/16 06:32:42;;;;;;;15.15;9.95;;;19.80;63.10;;;;;;5136296;28;20318;-38
2021/05/16 06:35:08;;;;;;;10.80;5.68;;;19.90;62.90;;;;;;5136289;28;20406;-36
2021/05/16 06:37:34;;;;;;;5.65;4.03;;;20.00;62.90;;;;;;5133586;28;20221;-36
2021/05/16 06:40:00;;;;;;;5.55;3.60;;;20.00;61.80;;;;;;5114901;28;20024;-36
2021/05/16 06:42:26;;;;;;;7.57;5.38;;;20.20;61.50;;;;;;5134107;28;20041;-36
2021/05/16 06:44:52;;;;;;;5.40;3.03;;;20.20;60.80;;;;;;5135487;28;20036;-38
2021/05/16 06:47:20;;;;;;;5.75;3.13;;;20.30;60.20;;;;;;5135722;28;20031;-36
2021/05/16 06:49:50;;;;;;;4.50;2.92;;;20.30;59.50;;;;;;5134251;28;20027;-36
2021/05/16 06:52:16;;;;;;;4.20;2.55;;;20.40;58.90;;;;;;5135417;28;20022;-37
2021/05/16 06:54:42;;;;;;;4.53;2.70;;;20.40;58.90;;;;;;5135972;28;20036;-38
2021/05/16 06:57:08;;;;;;;4.45;2.50;;;20.40;58.60;;;;;;5135093;28;20030;-39
2021/05/16 06:59:34;;;;;;;4.53;2.85;;;20.40;58.60;;;;;;5135628;28;20051;-38
2021/05/16 07:01:59;;;;;;;7.22;2.92;;;20.40;58.40;;;;;;5134713;28;20023;-40
2021/05/16 07:04:25;;;;;;;4.18;2.33;;;20.40;58.30;;;;;;5135556;28;20034;-38
2021/05/16 07:06:50;;;;;;;4.22;3.13;;;20.40;58.30;;;;;;5136008;27;20038;-39
2021/05/16 07:09:16;;;;;;;4.20;3.78;;;20.50;58.50;;;;;;5139539;27;20027;-38
2021/05/16 07:11:42;;;;;;;9.35;5.60;;;20.50;57.90;;;;;;5138977;27;20413;-38
2021/05/16 07:14:07;;;;;;;5.43;3.90;;;20.50;57.40;;;;;;5139292;27;20027;-38
2021/05/16 07:16:33;;;;;;;6.78;5.53;;;20.60;57.00;;;;;;5138969;27;20034;-38
2021/05/16 07:18:59;;;;;;;5.75;4.65;;;20.60;56.90;;;;;;5139214;27;20031;-38
2021/05/16 07:21:25;;;;;;;6.65;2.70;;;20.70;56.90;;;;;;5138705;27;20353;-38
2021/05/16 07:23:50;;;;;;;5.97;4.68;;;20.80;56.60;;;;;;5139565;27;20310;-37
2021/05/16 07:26:16;;;;;;;3.17;2.88;;;20.80;56.90;;;;;;5139039;27;20027;-38
2021/05/16 07:28:42;;;;;;;4.45;3.00;;;20.90;56.80;;;;;;5139506;27;20031;-36
2021/05/16 07:31:08;;;;;;;4.72;2.67;;;21.00;56.90;;;;;;5138866;27;20114;-38
2021/05/16 07:33:34;;;;;;;6.40;5.20;;;21.00;56.80;;;;;;5139183;27;20019;-38
2021/05/16 07:36:00;;;;;;;4.45;3.10;;;21.10;56.60;;;;;;5120192;27;20043;-36
2021/05/16 07:38:26;;;;;;;4.10;2.70;;;21.10;56.40;;;;;;5138953;27;20055;-36
2021/05/16 07:40:51;;;;;;;5.05;2.95;;;21.10;56.50;;;;;;5138424;27;20031;-36
2021/05/16 07:43:17;;;;;;;3.63;2.60;;;21.20;56.80;;;;;;5137909;27;20034;-36
2021/05/16 07:45:43;;;;;;;4.88;2.90;;;21.20;56.20;;;;;;5135955;27;20193;-35
2021/05/16 07:48:09;;;;;;;6.45;3.70;;;21.20;55.90;;;;;;5136064;27;20076;-36
2021/05/16 07:50:35;;;;;;;5.78;2.50;;;21.30;55.30;;;;;;5119542;27;20254;-38
2021/05/16 07:53:02;;;;;;;2.42;1.73;;;21.40;55.30;;;;;;5139043;27;20027;-38
2021/05/16 07:55:28;;;;;;;2.47;2.15;;;21.50;54.80;;;;;;5138597;27;20059;-36
2021/05/16 07:57:54;;;;;;;3.00;2.00;;;21.50;54.50;;;;;;5138969;27;20061;-36
2021/05/16 08:00:20;;;;;;;2.55;2.00;;;21.60;54.00;;;;;;5138219;27;20507;-36
2021/05/16 08:02:45;;;;;;;3.72;2.20;;;21.60;54.00;;;;;;5138650;27;20024;-38
2021/05/16 08:05:13;;;;;;;5.03;2.13;;;21.70;54.20;;;;;;5138337;27;20168;-38
2021/05/16 08:07:39;;;;;;;5.93;2.40;;;21.70;54.20;;;;;;5138742;27;20019;-39
2021/05/16 08:10:06;;;;;;;3.58;2.03;;;21.80;54.20;;;;;;5137422;27;20042;-36
2021/05/16 08:12:32;;;;;;;2.75;1.50;;;21.80;54.00;;;;;;5138391;27;20038;-38
2021/05/16 08:14:58;;;;;;;4.47;1.27;;;21.90;53.70;;;;;;5138179;27;20395;-36
2021/05/16 08:17:24;;;;;;;2.22;1.80;;;22.00;53.80;;;;;;5138159;27;20023;-36
2021/05/16 08:19:49;;;;;;;4.60;3.00;;;22.00;53.00;;;;;;5118407;27;20035;-36
2021/05/16 08:22:15;;;;;;;8.43;2.40;;;22.00;52.70;;;;;;5137975;27;20025;-36
2021/05/16 08:24:41;;;;;;;4.53;1.77;;;22.10;52.30;;;;;;5138617;27;20521;-36
2021/05/16 08:27:08;;;;;;;2.60;1.30;;;22.10;52.00;;;;;;5136935;27;20452;-38
2021/05/16 08:29:35;;;;;;;3.40;1.90;;;22.10;51.70;;;;;;5137367;27;20367;-37
2021/05/16 08:32:04;;;;;;;2.55;1.95;;;22.20;51.20;;;;;;5137653;27;20080;-36
2021/05/16 08:34:29;;;;;;;3.05;1.90;;;22.20;51.40;;;;;;5138095;27;20035;-36
2021/05/16 08:36:55;;;;;;;5.78;1.90;;;22.20;50.60;;;;;;5119511;27;20318;-36
2021/05/16 08:39:21;;;;;;;3.78;1.80;;;22.30;50.60;;;;;;5138031;27;20367;-36
2021/05/16 08:41:47;;;;;;;3.80;1.45;;;22.40;49.90;;;;;;5137808;27;20023;-37
2021/05/16 08:44:13;;;;;;;4.72;3.50;;;22.40;49.70;;;;;;5138017;27;20056;-36
2021/05/16 08:46:39;;;;;;;1.77;1.58;;;22.50;49.10;;;;;;5137777;27;20023;-37
2021/05/16 08:49:04;;;;;;;2.35;1.05;;;22.50;49.40;;;;;;5137843;27;20398;-38
2021/05/16 08:51:31;;;;;;;2.63;1.35;;;22.60;49.00;;;;;;5138020;27;20039;-36
2021/05/16 08:53:56;;;;;;;1.40;1.02;;;22.70;49.00;;;;;;5132363;27;20022;-36
2021/05/16 08:56:22;;;;;;;4.40;1.08;;;22.80;48.90;;;;;;5137444;27;20020;-36
2021/05/16 08:58:48;;;;;;;6.20;3.63;;;22.80;47.90;;;;;;5137155;27;20038;-36
2021/05/16 09:01:18;;;;;;;4.50;2.47;;;22.90;47.80;;;;;;5137655;27;20032;-36
2021/05/16 09:03:44;;;;;;;2.53;1.30;;;22.90;47.70;;;;;;5136962;27;20031;-36
2021/05/16 09:06:10;;;;;;;2.63;2.15;;;23.00;47.30;;;;;;5137357;27;20023;-36
2021/05/16 09:08:35;;;;;;;2.95;2.15;;;23.00;47.10;;;;;;5136934;27;20108;-37
2021/05/16 09:11:02;;;;;;;6.97;4.65;;;23.00;47.30;;;;;;5137342;27;20309;-37
2021/05/16 09:13:45;;;;;;;3.03;1.52;;;23.10;46.90;;;;;;5137080;27;20023;-38
2021/05/16 09:16:17;;;;;;;6.75;3.10;;;23.20;46.50;;;;;;5137309;27;20298;-38
2021/05/16 09:18:55;;;;;;;4.38;2.00;;;23.20;46.90;;;;;;5137201;27;20027;-36
2021/05/16 09:21:33;;;;;;;5.47;3.58;;;23.30;46.80;;;;;;5137317;27;20422;-36
2021/05/16 09:24:02;;;;;;;4.85;2.70;;;23.40;46.70;;;;;;5136861;27;20031;-37
2021/05/16 09:26:49;;;;;;;5.50;2.95;;;23.40;46.80;;;;;;5137195;27;20031;-37
2021/05/16 09:29:19;;;;;;;3.17;1.40;;;23.50;47.00;;;;;;5136645;27;20031;-37
2021/05/16 09:31:45;;;;;;;4.03;1.40;;;23.50;45.90;;;;;;5136066;27;20038;-38
2021/05/16 09:34:11;;;;;;;1.60;1.10;;;23.60;46.60;;;;;;5118395;27;20102;-36
2021/05/16 09:36:40;;;;;;;2.13;1.52;;;23.60;47.00;;;;;;5136166;27;20034;-36
2021/05/16 09:39:14;;;;;;;2.85;1.70;;;23.60;47.30;;;;;;5136585;27;20019;-36
2021/05/16 09:42:14;;;;;;;1.60;1.50;;;23.70;47.20;;;;;;5136812;27;20042;-36
2021/05/16 09:44:45;;;;;;;1.17;1.08;;;23.80;46.90;;;;;;5136898;27;20057;-37
2021/05/16 09:47:20;;;;;;;2.10;1.35;;;23.80;46.90;;;;;;5137043;27;20042;-37
2021/05/16 09:49:45;;;;;;;2.13;1.20;;;23.80;47.70;;;;;;5137136;27;20027;-37
2021/05/16 09:52:16;;;;;;;1.65;1.00;;;23.90;47.20;;;;;;5136793;27;20139;-37
2021/05/16 09:55:01;;;;;;;2.58;1.20;;;23.90;47.10;;;;;;5136911;27;20027;-36
2021/05/16 09:57:35;;;;;;;2.13;1.02;;;24.00;47.30;;;;;;5136148;27;20034;-36
2021/05/16 10:00:02;;;;;;;1.90;1.33;;;24.10;47.30;;;;;;5117995;27;20055;-36
2021/05/16 10:02:28;;;;;;;3.38;1.50;;;24.20;47.10;;;;;;5136245;27;20030;-36
2021/05/16 10:04:59;;;;;;;2.60;1.38;;;24.30;46.70;;;;;;5136361;27;20123;-36
2021/05/16 10:07:26;;;;;;;2.83;1.38;;;24.40;46.40;;;;;;5136766;27;20031;-37
2021/05/16 10:09:53;;;;;;;1.55;1.02;;;24.40;46.60;;;;;;5136462;27;20105;-38
2021/05/16 10:12:19;;;;;;;6.63;3.47;;;24.60;46.40;;;;;;5117999;28;20023;-36
2021/05/16 10:14:51;;;;;;;6.65;4.18;;;24.70;45.90;;;;;;5136268;28;20039;-36
2021/05/16 10:17:20;;;;;;;6.80;1.60;;;24.80;45.10;;;;;;5136347;28;20102;-37
2021/05/16 10:19:46;;;;;;;1.90;1.33;;;24.80;44.20;;;;;;5136130;28;20043;-38
2021/05/16 10:22:18;;;;;;;2.67;1.13;;;24.90;44.10;;;;;;5136078;28;20467;-38
2021/05/16 10:24:45;;;;;;;2.80;1.38;;;25.00;43.90;;;;;;5136450;28;20050;-38
2021/05/16 10:27:29;;;;;;;6.72;1.40;;;25.00;43.60;;;;;;5135952;28;20031;-38
2021/05/16 10:30:04;;;;;;;1.60;1.20;;;25.10;43.60;;;;;;5136268;28;20039;-39
2021/05/16 10:32:50;;;;;;;3.20;2.42;;;25.20;43.60;;;;;;5136437;28;20029;-38
2021/05/16 10:35:16;;;;;;;2.55;1.52;;;25.30;42.90;;;;;;5135559;28;20379;-38
2021/05/16 10:37:54;;;;;;;2.30;0.73;;;25.40;42.80;;;;;;5135935;28;20288;-37
2021/05/16 10:40:20;;;;;;;1.25;1.05;;;25.50;42.10;;;;;;5136022;28;20039;-38
2021/05/16 10:42:45;;;;;;;2.60;1.30;;;25.60;42.00;;;;;;5120913;27;20027;-37
2021/05/16 10:45:22;;;;;;;0.98;0.77;;;25.60;41.20;;;;;;5140027;27;20527;-36
2021/05/16 10:47:53;;;;;;;1.25;0.90;;;25.80;40.20;;;;;;5140104;27;20485;-38
2021/05/16 10:50:24;;;;;;;7.78;0.95;;;25.90;39.80;;;;;;5140265;27;20039;-37
2021/05/16 10:52:59;;;;;;;3.25;2.22;;;26.00;39.90;;;;;;5140340;27;20020;-38
2021/05/16 10:55:28;;;;;;;3.20;1.10;;;26.20;39.20;;;;;;5140243;27;20080;-38
2021/05/16 10:57:53;;;;;;;1.33;1.17;;;26.30;39.80;;;;;;5140080;27;20023;-36
2021/05/16 11:00:25;;;;;;;1.75;0.93;;;26.40;39.50;;;;;;5139952;27;20139;-36
2021/05/16 11:03:07;;;;;;;1.75;0.95;;;26.50;39.00;;;;;;5140074;27;20029;-37
2021/05/16 11:08:32;;;;;;;3.22;1.25;;;26.80;38.50;;;;;;5140178;27;20027;-37
2021/05/16 11:10:59;;;;;;;1.13;0.80;;;27.00;39.20;;;;;;5139968;27;20035;-36
2021/05/16 11:13:33;;;;;;;3.95;1.40;;;27.00;38.00;;;;;;5139785;27;20027;-37
2021/05/16 11:16:07;;;;;;;4.03;2.30;;;27.10;37.20;;;;;;5139476;27;20027;-37
2021/05/16 11:18:34;;;;;;;1.83;0.85;;;27.20;37.00;;;;;;5139256;27;20035;-36
2021/05/16 11:21:02;;;;;;;1.13;0.82;;;27.30;37.10;;;;;;5139257;27;20118;-36
2021/05/16 11:23:29;;;;;;;2.67;0.90;;;27.30;36.80;;;;;;5139715;27;20311;-37
2021/05/16 11:25:59;;;;;;;2.20;1.40;;;27.40;36.80;;;;;;5139660;27;20027;-37
2021/05/16 11:28:27;;;;;;;4.45;2.92;;;27.40;36.70;;;;;;5139388;27;20109;-37
2021/05/16 11:30:55;;;;;;;12.10;7.00;;;27.40;36.30;;;;;;5139112;27;20438;-37
2021/05/16 11:33:32;;;;;;;6.10;3.42;;;27.40;36.40;;;;;;5121469;27;20035;-37
2021/05/16 11:36:11;;;;;;;2.92;2.00;;;27.40;36.80;;;;;;5138832;27;20035;-37
2021/05/16 11:38:40;;;;;;;1.55;1.45;;;27.50;36.80;;;;;;5139705;27;20030;-37
2021/05/16 11:41:07;;;;;;;4.50;2.05;;;27.50;36.80;;;;;;5139074;27;20311;-38
2021/05/16 11:43:35;;;;;;;2.13;1.17;;;27.50;36.20;;;;;;5139269;27;20153;-38
2021/05/16 11:46:03;;;;;;;2.72;1.70;;;27.50;35.70;;;;;;5138871;27;20035;-37
2021/05/16 11:48:34;;;;;;;3.28;1.70;;;27.50;36.40;;;;;;5139244;27;20118;-38
2021/05/16 11:51:08;;;;;;;4.20;1.90;;;27.50;36.50;;;;;;5138776;27;20436;-36
2021/05/16 11:53:34;;;;;;;4.00;1.52;;;27.50;36.60;;;;;;5137573;27;20106;-36
2021/05/16 11:56:05;;;;;;;4.20;2.50;;;27.40;37.00;;;;;;5138834;27;20027;-38
2021/05/16 11:58:31;;;;;;;4.82;1.95;;;27.40;36.80;;;;;;5138867;27;20064;-37
2021/05/16 12:00:58;;;;;;;2.22;1.20;;;27.50;36.90;;;;;;5138411;27;20125;-38
2021/05/16 12:03:23;;;;;;;4.60;3.08;;;27.50;37.00;;;;;;5139086;27;20042;-36
2021/05/16 12:05:49;;;;;;;2.17;1.77;;;27.50;36.90;;;;;;5138456;27;20063;-37
2021/05/16 12:08:23;;;;;;;5.00;2.35;;;27.50;37.00;;;;;;5138569;27;20027;-36
2021/05/16 12:11:10;;;;;;;5.18;3.35;;;27.50;36.70;;;;;;5120218;27;20039;-38
2021/05/16 12:13:36;;;;;;;1.50;1.25;;;27.50;36.70;;;;;;5139080;27;20106;-38
2021/05/16 12:16:18;;;;;;;3.72;1.52;;;27.50;36.10;;;;;;5138382;27;20421;-38
2021/05/16 12:18:45;;;;;;;5.15;3.22;;;27.50;35.40;;;;;;5138522;27;20356;-37
2021/05/16 12:21:13;;;;;;;2.97;1.60;;;27.50;35.50;;;;;;5138199;27;20110;-37
2021/05/16 12:23:39;;;;;;;3.15;2.10;;;27.50;35.00;;;;;;5138702;27;20121;-37
2021/05/16 12:26:06;;;;;;;5.93;2.25;;;27.50;35.10;;;;;;5138619;27;20062;-38
2021/05/16 12:28:32;;;;;;;5.10;1.30;;;27.50;35.10;;;;;;5138232;27;20027;-37
2021/05/16 12:30:58;;;;;;;6.22;3.10;;;27.50;35.10;;;;;;5137805;27;20035;-36
2021/05/16 12:33:25;;;;;;;2.72;1.90;;;27.50;34.90;;;;;;5138259;27;20019;-37
2021/05/16 12:35:51;;;;;;;2.22;1.70;;;27.50;34.90;;;;;;5138411;27;20027;-38
2021/05/16 12:38:17;;;;;;;3.97;2.17;;;27.40;34.80;;;;;;5138192;27;20019;-36
2021/05/16 12:40:43;;;;;;;2.95;2.35;;;27.40;35.00;;;;;;5138202;27;20088;-38
2021/05/16 12:43:13;;;;;;;3.85;2.78;;;27.40;35.30;;;;;;5137967;27;20031;-37
2021/05/16 12:45:40;;;;;;;4.70;2.05;;;27.30;35.00;;;;;;5137945;27;20131;-36
2021/05/16 12:48:12;;;;;;;7.30;2.20;;;27.20;35.00;;;;;;5138260;27;20038;-37
2021/05/16 12:50:49;;;;;;;1.95;1.13;;;27.10;35.30;;;;;;5137961;27;20213;-40
2021/05/16 12:53:27;;;;;;;7.00;1.95;;;27.10;35.10;;;;;;5138306;27;20294;-37
2021/05/16 12:55:54;;;;;;;4.50;1.38;;;27.10;35.50;;;;;;5137549;27;20027;-37
2021/05/16 12:58:32;;;;;;;2.92;1.63;;;27.00;35.60;;;;;;5137694;27;20023;-37
2021/05/16 13:00:58;;;;;;;6.28;2.10;;;27.00;35.80;;;;;;5117314;28;20047;-36
2021/05/16 13:03:35;;;;;;;3.25;2.15;;;27.00;36.00;;;;;;5117112;28;20106;-37
2021/05/16 13:06:03;;;;;;;4.28;1.00;;;27.00;36.30;;;;;;5116202;28;20031;-38
2021/05/16 13:08:40;;;;;;;2.17;1.00;;;26.90;36.10;;;;;;5117295;28;20027;-37
2021/05/16 13:11:08;;;;;;;1.67;0.90;;;26.90;36.10;;;;;;5116658;27;20055;-38
2021/05/16 13:13:40;;;;;;;3.03;2.30;;;26.80;35.90;;;;;;5116905;28;20024;-36
2021/05/16 13:16:08;;;;;;;3.80;2.67;;;26.80;35.70;;;;;;5117046;28;20449;-37
2021/05/16 13:18:44;;;;;;;7.15;3.60;;;26.80;35.70;;;;;;5116640;28;20220;-36
2021/05/16 13:21:15;;;;;;;3.75;1.50;;;26.80;36.30;;;;;;5116422;28;20035;-36
2021/05/16 13:23:56;;;;;;;17.60;7.70;;;26.80;36.50;;;;;;5116753;28;20016;-36
2021/05/16 13:26:57;;;;;;;8.40;3.78;;;26.80;36.90;;;;;;5116845;28;20053;-37
2021/05/16 13:29:29;;;;;;;27.40;14.82;;;26.80;37.20;;;;;;5033894;28;20128;-36
2021/05/16 13:31:55;;;;;;;17.05;8.52;;;26.70;37.30;;;;;;5103047;28;20106;-36
2021/05/16 13:34:28;;;;;;;22.13;7.15;;;26.60;38.00;;;;;;5116712;28;20107;-38
2021/05/16 13:36:56;;;;;;;12.63;5.40;;;26.60;36.90;;;;;;5116529;28;20027;-37
2021/05/16 13:39:26;;;;;;;6.85;2.72;;;26.40;37.30;;;;;;5116491;28;20314;-38
2021/05/16 13:41:54;;;;;;;4.00;1.85;;;26.30;37.20;;;;;;5116225;28;20127;-36
2021/05/16 13:44:20;;;;;;;4.28;2.35;;;26.30;36.90;;;;;;5116415;28;20023;-36
2021/05/16 13:46:47;;;;;;;6.15;2.95;;;26.20;37.00;;;;;;5116200;28;20023;-37
2021/05/16 13:49:13;;;;;;;4.40;2.50;;;26.10;37.50;;;;;;5116512;28;20081;-37
2021/05/16 13:51:40;;;;;;;4.07;1.92;;;26.00;37.50;;;;;;5116466;28;20027;-36
2021/05/16 13:54:08;;;;;;;3.78;1.50;;;25.90;37.60;;;;;;5116451;28;20032;-37
2021/05/16 13:56:35;;;;;;;2.42;1.60;;;25.90;38.10;;;;;;5116462;28;20476;-36
2021/05/16 13:59:01;;;;;;;3.92;2.80;;;25.80;38.30;;;;;;5120306;28;20375;-36
2021/05/16 14:01:26;;;;;;;3.60;2.10;;;25.70;38.80;;;;;;5136908;27;20078;-37
2021/05/16 14:03:52;;;;;;;5.18;2.00;;;25.70;39.50;;;;;;5136737;27;20023;-37
2021/05/16 14:06:18;;;;;;;4.95;1.67;;;25.60;39.50;;;;;;5136902;27;20059;-36
2021/05/16 14:08:44;;;;;;;3.00;1.45;;;25.60;39.20;;;;;;5136757;27;20025;-36
2021/05/16 14:11:10;;;;;;;4.03;1.60;;;25.50;39.10;;;;;;5136755;27;20031;-36
2021/05/16 14:13:36;;;;;;;9.88;2.50;;;25.40;39.00;;;;;;5136745;27;20087;-36
2021/05/16 14:16:03;;;;;;;5.40;1.80;;;25.40;39.30;;;;;;5135943;27;20039;-37
2021/05/16 14:18:29;;;;;;;2.95;1.02;;;25.40;39.30;;;;;;5136643;28;20019;-36
2021/05/16 14:20:54;;;;;;;2.05;1.45;;;25.40;39.60;;;;;;5118167;28;20292;-36
2021/05/16 14:23:20;;;;;;;3.03;1.08;;;25.50;39.90;;;;;;5136614;28;20076;-37
2021/05/16 14:25:46;;;;;;;4.07;1.70;;;25.70;39.60;;;;;;5136510;28;20033;-36
2021/05/16 14:28:11;;;;;;;3.85;1.90;;;25.80;39.20;;;;;;5136452;28;20078;-37
2021/05/16 14:30:41;;;;;;;4.80;3.10;;;25.90;38.90;;;;;;5136563;28;20062;-37
2021/05/16 14:33:07;;;;;;;3.05;1.48;;;26.00;38.20;;;;;;5136242;28;20019;-37
2021/05/16 14:35:33;;;;;;;4.13;2.22;;;26.00;37.90;;;;;;5136438;28;20145;-37
2021/05/16 14:37:59;;;;;;;3.88;1.83;;;26.00;37.80;;;;;;5136530;28;20110;-36
2021/05/16 14:40:24;;;;;;;5.70;2.10;;;25.90;37.50;;;;;;5136339;28;20414;-36
2021/05/16 14:42:50;;;;;;;2.53;1.77;;;25.90;37.30;;;;;;5136532;28;20031;-38
2021/05/16 14:45:16;;;;;;;2.33;1.60;;;25.80;37.20;;;;;;5136012;28;20355;-37
2021/05/16 14:47:41;;;;;;;5.55;3.10;;;25.80;37.50;;;;;;5136008;28;20125;-36
2021/05/16 14:50:07;;;;;;;7.75;3.42;;;25.70;37.50;;;;;;5136019;28;20031;-37
2021/05/16 14:52:33;;;;;;;5.72;2.33;;;25.70;37.70;;;;;;5136393;28;20027;-37
2021/05/16 14:54:59;;;;;;;4.18;2.80;;;25.70;37.50;;;;;;5136281;28;20088;-36
2021/05/16 14:57:25;;;;;;;5.75;2.50;;;25.70;37.70;;;;;;5136596;28;20034;-36
2021/05/16 14:59:50;;;;;;;4.90;2.53;;;25.60;37.80;;;;;;5135834;28;20051;-36
2021/05/16 15:02:16;;;;;;;8.45;2.90;;;25.70;37.80;;;;;;5136003;28;20076;-37
2021/05/16 15:04:43;;;;;;;5.60;2.53;;;25.70;37.80;;;;;;5136093;28;20031;-37
2021/05/16 15:07:10;;;;;;;6.03;2.38;;;25.80;38.00;;;;;;5135555;28;20035;-36
2021/05/16 15:09:36;;;;;;;2.35;1.80;;;25.80;37.60;;;;;;5136031;28;20414;-37
2021/05/16 15:12:01;;;;;;;3.85;1.70;;;25.90;37.90;;;;;;5135759;28;20034;-37
2021/05/16 15:14:27;;;;;;;7.20;2.28;;;25.90;38.30;;;;;;5136086;28;20031;-37
2021/05/16 15:16:53;;;;;;;4.93;2.70;;;25.90;38.80;;;;;;5136130;28;20041;-36
2021/05/16 15:19:18;;;;;;;4.57;2.35;;;25.90;38.80;;;;;;5136238;28;20050;-37
2021/05/16 15:21:44;;;;;;;3.88;2.00;;;26.00;38.70;;;;;;5135826;28;20023;-37
2021/05/16 15:24:11;;;;;;;12.32;3.17;;;26.00;39.80;;;;;;5136177;28;20449;-37
2021/05/16 15:26:37;;;;;;;17.70;3.33;;;26.00;40.80;;;;;;5135620;28;20034;-36
2021/05/16 15:29:03;;;;;;;30.75;3.67;;;26.00;41.60;;;;;;5138723;27;20035;-37
2021/05/16 15:31:29;;;;;;;17.27;3.10;;;26.00;42.40;;;;;;5138006;27;20031;-37
2021/05/16 15:33:54;;;;;;;14.55;3.00;;;26.00;42.70;;;;;;5139675;27;20025;-37
2021/05/16 15:36:20;;;;;;;5.47;3.20;;;26.00;42.90;;;;;;5139773;27;20023;-36
2021/05/16 15:38:46;;;;;;;10.50;3.53;;;25.90;42.60;;;;;;5139750;27;20386;-36
2021/05/16 15:41:11;;;;;;;6.70;3.60;;;25.90;41.90;;;;;;5139741;27;20031;-37
2021/05/16 15:43:37;;;;;;;11.75;3.63;;;25.90;42.00;;;;;;5139465;27;20427;-37
2021/05/16 15:46:03;;;;;;;13.98;3.67;;;25.80;41.30;;;;;;5138977;27;20039;-37
2021/05/16 15:48:30;;;;;;;6.07;3.58;;;25.80;41.30;;;;;;5139526;27;20031;-36
2021/05/16 15:51:00;;;;;;;6.78;3.42;;;25.70;40.80;;;;;;5139391;27;20303;-37
2021/05/16 15:53:26;;;;;;;5.90;3.00;;;25.70;40.80;;;;;;5139548;27;20303;-37
2021/05/16 15:55:52;;;;;;;5.68;2.63;;;25.70;40.60;;;;;;5139071;27;20027;-36
2021/05/16 15:58:18;;;;;;;9.95;2.58;;;25.60;40.50;;;;;;5139145;27;20023;-37
2021/05/16 16:00:44;;;;;;;9.25;3.00;;;25.60;40.30;;;;;;5138515;27;20089;-37
2021/05/16 16:03:09;;;;;;;6.95;2.45;;;25.50;40.30;;;;;;5138551;27;20307;-37
2021/05/16 16:05:35;;;;;;;6.68;2.47;;;25.40;40.10;;;;;;5138813;27;20039;-36
2021/05/16 16:08:01;;;;;;;6.82;2.03;;;25.40;40.20;;;;;;5138639;27;20042;-36
2021/05/16 16:10:27;;;;;;;5.45;2.35;;;25.40;40.00;;;;;;5138908;27;20039;-37
2021/05/16 16:12:56;;;;;;;27.83;4.75;;;25.30;39.90;;;;;;5138717;27;20030;-36
2021/05/16 16:15:23;;;;;;;60.47;7.30;;;25.20;42.10;;;;;;5138915;27;20130;-37
2021/05/16 16:17:49;;;;;;;38.08;5.93;;;25.20;43.40;;;;;;5138870;27;20027;-36
2021/05/16 16:20:15;;;;;;;31.58;5.45;;;25.10;44.20;;;;;;5138803;27;20322;-37
2021/05/16 16:22:42;;;;;;;21.30;4.68;;;25.10;44.90;;;;;;5138860;27;20028;-36
2021/05/16 16:25:08;;;;;;;18.95;3.72;;;25.00;44.80;;;;;;5138258;27;20129;-36
2021/05/16 16:27:35;;;;;;;16.15;3.30;;;24.90;45.10;;;;;;5138908;27;20024;-36
2021/05/16 16:30:01;;;;;;;9.95;3.00;;;24.80;45.10;;;;;;5138219;27;20127;-36
2021/05/16 16:32:26;;;;;;;5.97;2.83;;;24.70;45.00;;;;;;5138382;27;20098;-37
2021/05/16 16:34:52;;;;;;;8.30;3.50;;;24.60;45.00;;;;;;5138356;27;20079;-36
2021/05/16 16:37:18;;;;;;;12.05;3.00;;;24.50;45.10;;;;;;5138024;27;20027;-36
2021/05/16 16:39:44;;;;;;;10.20;3.40;;;24.40;45.40;;;;;;5137428;27;20068;-36
2021/05/16 16:42:11;;;;;;;13.65;3.13;;;24.30;45.80;;;;;;5137831;27;20091;-37
2021/05/16 16:44:37;;;;;;;9.73;3.30;;;24.30;46.10;;;;;;5138090;27;20032;-36
2021/05/16 16:47:04;;;;;;;16.40;3.42;;;24.10;46.40;;;;;;5137752;27;20043;-37
2021/05/16 16:49:29;;;;;;;10.57;3.05;;;24.10;46.80;;;;;;5138029;27;20035;-37
2021/05/16 16:51:55;;;;;;;6.05;2.80;;;24.00;46.60;;;;;;5138060;27;20042;-36
2021/05/16 16:54:21;;;;;;;8.50;3.10;;;23.90;46.60;;;;;;5137922;27;20019;-37
2021/05/16 16:56:48;;;;;;;6.50;2.78;;;23.80;46.90;;;;;;5137884;27;20019;-37
2021/05/16 16:59:14;;;;;;;7.15;2.95;;;23.70;46.70;;;;;;5137694;27;20043;-36
2021/05/16 17:01:40;;;;;;;5.38;3.13;;;23.60;47.10;;;;;;5137430;27;20023;-37
2021/05/16 17:04:05;;;;;;;9.30;2.65;;;23.60;47.30;;;;;;5137785;27;20031;-36
2021/05/16 17:06:31;;;;;;;3.38;2.58;;;23.50;47.30;;;;;;5137497;27;20023;-36
2021/05/16 17:08:57;;;;;;;13.10;2.92;;;23.40;47.30;;;;;;5137742;27;20059;-37
2021/05/16 17:11:23;;;;;;;4.22;2.50;;;23.30;47.40;;;;;;5137925;27;20023;-36
2021/05/16 17:13:49;;;;;;;3.65;2.28;;;23.20;47.50;;;;;;5137509;27;20038;-36
2021/05/16 17:16:15;;;;;;;6.85;2.97;;;23.10;47.50;;;;;;5137758;27;20035;-37
2021/05/16 17:18:41;;;;;;;6.03;2.60;;;23.00;47.60;;;;;;5137442;27;20019;-36
2021/05/16 17:21:07;;;;;;;3.28;2.80;;;23.00;47.60;;;;;;5137110;27;20031;-36
2021/05/16 17:23:33;;;;;;;5.43;2.95;;;22.90;48.00;;;;;;5137544;27;20023;-36
2021/05/16 17:25:59;;;;;;;7.15;2.85;;;22.80;48.00;;;;;;5137195;27;20023;-36
2021/05/16 17:28:25;;;;;;;3.65;2.40;;;22.70;48.10;;;;;;5137464;27;20110;-36
2021/05/16 17:30:54;;;;;;;5.85;2.65;;;22.60;48.10;;;;;;5137404;27;20323;-36
2021/05/16 17:33:23;;;;;;;6.43;3.03;;;22.50;48.30;;;;;;5137786;27;20288;-36
2021/05/16 17:35:52;;;;;;;6.95;2.85;;;22.40;48.70;;;;;;5136950;27;20059;-37
2021/05/16 17:38:18;;;;;;;7.35;3.58;;;22.30;48.70;;;;;;5137287;27;20051;-36
2021/05/16 17:40:44;;;;;;;10.95;4.60;;;22.20;48.80;;;;;;5136916;27;20106;-36
2021/05/16 17:43:10;;;;;;;9.20;4.22;;;22.10;49.00;;;;;;5136923;27;20114;-36
2021/05/16 17:45:35;;;;;;;11.45;3.53;;;22.00;49.70;;;;;;5136772;27;20152;-36
2021/05/16 17:48:02;;;;;;;18.40;4.28;;;21.90;49.90;;;;;;5136935;27;20164;-36
2021/05/16 17:50:28;;;;;;;8.85;4.20;;;21.80;50.40;;;;;;5136654;27;20039;-36
2021/05/16 17:52:54;;;;;;;8.15;4.50;;;21.70;50.60;;;;;;5137140;27;20049;-37
2021/05/16 17:55:20;;;;;;;13.48;5.57;;;21.60;51.10;;;;;;5136705;27;20335;-36
2021/05/16 17:57:46;;;;;;;12.52;4.72;;;21.50;51.30;;;;;;5137500;27;20027;-37
2021/05/16 18:00:13;;;;;;;9.38;3.95;;;21.50;51.60;;;;;;5136735;27;20338;-37
2021/05/16 18:02:41;;;;;;;7.85;4.18;;;21.40;51.80;;;;;;5137093;27;20095;-36
2021/05/16 18:05:10;;;;;;;11.07;4.20;;;21.40;52.10;;;;;;5136607;27;20092;-37
2021/05/16 18:07:36;;;;;;;8.43;4.63;;;21.30;52.50;;;;;;5137165;27;20354;-36
2021/05/16 18:10:04;;;;;;;12.27;4.25;;;21.20;52.80;;;;;;5136665;27;20115;-36
2021/05/16 18:12:29;;;;;;;10.15;4.35;;;21.20;53.20;;;;;;5136838;27;20023;-37
2021/05/16 18:14:55;;;;;;;10.10;4.40;;;21.10;53.30;;;;;;5137007;27;20096;-36
2021/05/16 18:17:21;;;;;;;8.82;4.30;;;21.10;53.50;;;;;;5137001;28;20398;-36
2021/05/16 18:19:46;;;;;;;9.38;3.60;;;21.00;53.60;;;;;;5136914;28;20063;-37
2021/05/16 18:22:12;;;;;;;22.60;7.88;;;20.90;53.70;;;;;;5136542;28;20445;-36
2021/05/16 18:24:38;;;;;;;14.20;6.78;;;20.90;54.40;;;;;;5136398;28;20115;-36
2021/05/16 18:27:04;;;;;;;14.68;6.47;;;20.80;54.60;;;;;;5136371;28;20322;-37
2021/05/16 18:29:29;;;;;;;11.65;5.97;;;20.70;54.80;;;;;;5136464;28;20035;-36
2021/05/16 18:31:55;;;;;;;18.85;8.48;;;20.60;55.10;;;;;;5136473;28;20068;-36
2021/05/16 18:34:21;;;;;;;12.50;6.45;;;20.60;55.50;;;;;;5136476;28;20019;-37
2021/05/16 18:36:46;;;;;;;16.27;10.05;;;20.50;55.80;;;;;;5136271;28;20023;-37
2021/05/16 18:39:12;;;;;;;18.30;9.40;;;20.50;56.10;;;;;;5136175;28;20027;-36
2021/05/16 18:41:41;;;;;;;20.38;9.75;;;20.40;56.30;;;;;;5136588;28;20068;-36
2021/05/16 18:44:08;;;;;;;20.02;12.15;;;20.30;56.50;;;;;;5136145;28;20028;-36
2021/05/16 18:46:34;;;;;;;28.38;17.33;;;20.30;56.90;;;;;;5136343;28;20035;-36
2021/05/16 18:48:59;;;;;;;32.45;18.30;;;20.20;57.30;;;;;;5136346;28;20030;-36